createdAt,value
2018-09-11T00:02:17.029Z,101972.65
2018-09-11T00:04:47.530Z,101969.20
2018-09-11T00:07:18.093Z,101969.23
2018-09-11T00:09:48.383Z,101976.00
2018-09-11T00:12:18.588Z,101982.20
2018-09-11T00:14:48.886Z,101978.78
2018-09-11T00:17:18.716Z,101977.77
2018-09-11T00:19:49.097Z,101973.19
2018-09-11T00:22:19.288Z,101973.22
2018-09-11T00:24:49.673Z,101973.48
2018-09-11T00:27:20.179Z,101967.59
2018-09-11T00:29:50.251Z,101963.71
2018-09-11T00:32:20.605Z,101960.78
2018-09-11T00:34:50.854Z,101962.38
2018-09-11T00:37:21.260Z,101963.73
2018-09-11T00:39:51.508Z,101962.05
2018-09-11T00:42:21.912Z,101967.44
2018-09-11T00:44:52.233Z,101962.29
2018-09-11T00:47:22.997Z,101957.44
2018-09-11T00:49:53.392Z,101963.20
2018-09-11T00:52:23.686Z,101961.59
2018-09-11T00:54:54.142Z,101955.36
2018-09-11T00:57:24.572Z,101952.43
2018-09-11T00:59:54.940Z,101944.89
2018-09-11T01:02:25.345Z,101942.64
2018-09-11T01:04:55.979Z,101943.58
2018-09-11T01:07:26.134Z,101939.34
2018-09-11T01:09:55.991Z,101946.78
2018-09-11T01:12:26.154Z,101945.63
2018-09-11T01:14:56.705Z,101942.50
2018-09-11T01:17:27.126Z,101940.05
2018-09-11T01:19:57.379Z,101941.89
2018-09-11T01:22:28.305Z,101937.86
2018-09-11T01:24:58.972Z,101928.97
2018-09-11T01:27:29.269Z,101939.53
2018-09-11T01:29:59.680Z,101940.88
2018-09-11T01:32:30.009Z,101928.29
2018-09-11T01:35:00.633Z,101929.97
2018-09-11T01:37:30.731Z,101933.57
2018-09-11T01:40:01.200Z,101927.71
2018-09-11T01:42:31.651Z,101928.55
2018-09-11T01:45:02.511Z,101935.86
2018-09-11T01:47:32.839Z,101933.46
2018-09-11T01:50:03.317Z,101928.08
2018-09-11T01:52:33.487Z,101932.18
2018-09-11T01:55:03.698Z,101929.73
2018-09-11T01:57:34.323Z,101933.16
2018-09-11T02:00:04.678Z,101929.70
2018-09-11T02:02:34.957Z,101929.48
2018-09-11T02:05:05.635Z,101931.13
2018-09-11T02:07:36.063Z,101933.86
2018-09-11T02:10:06.837Z,101930.42
2018-09-11T02:12:37.294Z,101921.60
2018-09-11T02:15:08.335Z,101927.55
2018-09-11T02:17:38.827Z,101931.86
2018-09-11T02:20:08.958Z,101934.85
2018-09-11T02:22:39.228Z,101934.79
2018-09-11T02:25:09.662Z,101935.39
2018-09-11T02:27:40.118Z,101924.86
2018-09-11T02:30:10.503Z,101928.39
2018-09-11T02:32:41.099Z,101935.09
2018-09-11T02:35:11.606Z,101938.08
2018-09-11T02:37:42.224Z,101941.91
2018-09-11T02:40:12.704Z,101941.02
2018-09-11T02:42:42.996Z,101945.20
2018-09-11T02:45:14.183Z,101947.50
2018-09-11T02:47:44.445Z,101945.55
2018-09-11T02:50:14.911Z,101942.36
2018-09-11T02:52:45.452Z,101951.54
2018-09-11T02:55:15.351Z,101951.03
2018-09-11T02:57:45.164Z,101959.91
2018-09-11T03:00:15.655Z,101962.39
2018-09-11T03:02:45.664Z,101952.37
2018-09-11T03:05:15.533Z,101955.06
2018-09-11T03:07:45.334Z,101957.01
2018-09-11T03:10:15.414Z,101958.14
2018-09-11T03:12:45.364Z,101958.95
2018-09-11T03:15:15.406Z,101964.19
2018-09-11T03:17:45.354Z,101966.05
2018-09-11T03:20:15.300Z,101964.10
2018-09-11T03:22:45.274Z,101964.61
2018-09-11T03:25:15.463Z,101958.83
2018-09-11T03:27:45.487Z,101963.38
2018-09-11T03:30:15.421Z,101959.10
2018-09-11T03:32:45.415Z,101960.62
2018-09-11T03:35:15.531Z,101964.57
2018-09-11T03:37:45.711Z,101965.31
2018-09-11T03:40:15.630Z,101961.13
2018-09-11T03:42:45.724Z,101967.56
2018-09-11T03:45:15.667Z,101958.88
2018-09-11T03:47:45.870Z,101964.33
2018-09-11T03:50:15.775Z,101955.14
2018-09-11T03:52:45.800Z,101957.14
2018-09-11T03:55:15.573Z,101960.73
2018-09-11T03:57:45.494Z,101953.70
2018-09-11T04:00:15.979Z,101956.39
2018-09-11T04:02:46.027Z,101961.75
2018-09-11T04:05:15.964Z,101960.98
2018-09-11T04:07:46.013Z,101956.60
2018-09-11T04:10:16.150Z,101958.02
2018-09-11T04:12:45.960Z,101951.72
2018-09-11T04:15:15.886Z,101958.02
2018-09-11T04:17:45.815Z,101951.61
2018-09-11T04:20:15.807Z,101954.94
2018-09-11T04:22:45.735Z,101953.47
2018-09-11T04:25:15.580Z,101952.22
2018-09-11T04:27:45.570Z,101951.95
2018-09-11T04:30:15.511Z,101955.78
2018-09-11T04:32:45.594Z,101958.23
2018-09-11T04:35:15.476Z,101954.56
2018-09-11T04:37:45.248Z,101960.69
2018-09-11T04:40:15.205Z,101963.08
2018-09-11T04:42:45.045Z,101953.55
2018-09-11T04:45:15.531Z,101947.92
2018-09-11T04:47:46.474Z,101952.94
2018-09-11T04:50:16.491Z,101948.76
2018-09-11T04:52:46.613Z,101945.26
2018-09-11T04:55:16.592Z,101947.70
2018-09-11T04:57:46.426Z,101942.87
2018-09-11T05:00:17.163Z,101938.59
2018-09-11T05:02:47.289Z,101943.16
2018-09-11T05:05:17.135Z,101944.27
2018-09-11T05:07:47.371Z,101938.11
2018-09-11T05:10:17.419Z,101940.56
2018-09-11T05:12:47.426Z,101935.72
2018-09-11T05:15:17.594Z,101938.37
2018-09-11T05:17:47.575Z,101937.75
2018-09-11T05:20:17.604Z,101943.88
2018-09-11T05:22:47.497Z,101941.79
2018-09-11T05:25:17.443Z,101943.42
2018-09-11T05:27:47.389Z,101945.04
2018-09-11T05:30:17.275Z,101938.84
2018-09-11T05:32:48.038Z,101938.01
2018-09-11T05:35:18.094Z,101939.20
2018-09-11T05:37:47.946Z,101938.86
2018-09-11T05:40:18.071Z,101949.66
2018-09-11T05:42:47.903Z,101940.98
2018-09-11T05:45:17.902Z,101945.92
2018-09-11T05:47:47.794Z,101942.13
2018-09-11T05:50:17.895Z,101940.85
2018-09-11T05:52:48.060Z,101942.94
2018-09-11T05:55:17.825Z,101948.02
2018-09-11T05:57:47.970Z,101943.64
2018-09-11T06:00:17.773Z,101937.55
2018-09-11T06:02:47.776Z,101937.64
2018-09-11T06:05:17.645Z,101945.02
2018-09-11T06:07:47.832Z,101945.02
2018-09-11T06:10:17.630Z,101937.54
2018-09-11T06:12:47.635Z,101943.77
2018-09-11T06:15:17.436Z,101944.23
2018-09-11T06:17:47.399Z,101946.56
2018-09-11T06:20:17.137Z,101946.72
2018-09-11T06:22:46.955Z,101946.11
2018-09-11T06:25:16.927Z,101950.34
2018-09-11T06:27:46.996Z,101955.13
2018-09-11T06:30:17.839Z,101953.78
2018-09-11T06:32:47.784Z,101950.89
2018-09-11T06:35:17.668Z,101961.67
2018-09-11T06:37:47.433Z,101956.44
2018-09-11T06:40:17.509Z,101954.72
2018-09-11T06:42:47.329Z,101954.98
2018-09-11T06:45:17.331Z,101954.59
2018-09-11T06:47:47.222Z,101949.45
2018-09-11T06:50:17.629Z,101947.95
2018-09-11T06:52:48.029Z,101952.02
2018-09-11T06:55:18.660Z,101952.63
2018-09-11T06:57:48.872Z,101959.92
2018-09-11T07:00:19.329Z,101960.89
2018-09-11T07:02:49.681Z,101963.77
2018-09-11T07:05:20.248Z,101969.80
2018-09-11T07:07:50.597Z,101964.81
2018-09-11T07:10:21.021Z,101973.84
2018-09-11T07:12:50.878Z,101962.00
2018-09-11T07:15:20.930Z,101967.19
2018-09-11T07:17:50.890Z,101970.59
2018-09-11T07:20:21.715Z,101979.06
2018-09-11T07:22:51.346Z,101980.77
2018-09-11T07:25:21.210Z,101989.05
2018-09-11T07:27:51.139Z,101986.34
2018-09-11T07:30:21.077Z,101982.06
2018-09-11T07:32:50.972Z,101981.08
2018-09-11T07:35:21.263Z,101970.92
2018-09-11T07:37:51.411Z,101973.91
2018-09-11T07:40:21.296Z,101979.31
2018-09-11T07:42:51.069Z,101967.58
2018-09-11T07:45:21.290Z,101974.08
2018-09-11T07:47:51.315Z,101971.27
2018-09-11T07:50:21.288Z,101984.30
2018-09-11T07:52:51.409Z,101974.47
2018-09-11T07:55:21.162Z,101963.91
2018-09-11T07:57:51.109Z,101970.91
2018-09-11T08:00:21.055Z,101974.17
2018-09-11T08:02:51.005Z,101970.61
2018-09-11T08:05:20.895Z,101969.91
2018-09-11T08:07:50.781Z,101968.87
2018-09-11T08:10:20.792Z,101962.88
2018-09-11T08:12:50.802Z,101968.94
2018-09-11T08:15:20.642Z,101971.80
2018-09-11T08:17:50.695Z,101979.86
2018-09-11T08:20:20.469Z,101980.41
2018-09-11T08:22:50.448Z,101976.35
2018-09-11T08:25:20.286Z,101983.11
2018-09-11T08:27:50.202Z,101977.77
2018-09-11T08:30:20.095Z,101976.48
2018-09-11T08:32:49.998Z,101970.38
2018-09-11T08:35:19.957Z,101961.53
2018-09-11T08:37:49.865Z,101959.81
2018-09-11T08:40:19.975Z,101961.87
2018-09-11T08:42:50.145Z,101968.28
2018-09-11T08:45:21.270Z,101972.42
2018-09-11T08:47:51.217Z,101968.42
2018-09-11T08:50:21.039Z,101961.41
2018-09-11T08:52:51.152Z,101969.98
2018-09-11T08:55:21.240Z,101966.19
2018-09-11T08:57:51.284Z,101972.14
2018-09-11T09:00:21.070Z,101968.13
2018-09-11T09:02:51.108Z,101968.91
2018-09-11T09:05:21.363Z,101967.41
2018-09-11T09:07:51.786Z,101960.55
2018-09-11T09:10:22.148Z,101965.50
2018-09-11T09:12:52.688Z,101962.83
2018-09-11T09:15:22.930Z,101957.45
2018-09-11T09:17:52.851Z,101952.97
2018-09-11T09:20:23.223Z,101956.87
2018-09-11T09:22:53.272Z,101953.47
2018-09-11T09:25:23.424Z,101956.19
2018-09-11T09:27:53.621Z,101952.45
2018-09-11T09:30:23.799Z,101954.33
2018-09-11T09:32:53.746Z,101943.67
2018-09-11T09:35:23.900Z,101947.28
2018-09-11T09:37:54.104Z,101951.86
2018-09-11T09:40:24.604Z,101947.75
2018-09-11T09:42:55.043Z,101953.52
2018-09-11T09:45:25.279Z,101951.00
2018-09-11T09:47:55.961Z,101935.27
2018-09-11T09:50:26.379Z,101940.69
2018-09-11T09:52:56.964Z,101948.08
2018-09-11T09:55:27.360Z,101936.91
2018-09-11T09:57:58.029Z,101940.31
2018-09-11T10:00:33.283Z,101944.64
2018-09-11T10:03:03.409Z,101947.48
2018-09-11T10:05:33.918Z,101949.30
2018-09-11T10:08:04.147Z,101950.35
2018-09-11T10:10:34.422Z,101949.60
2018-09-11T10:13:04.920Z,101949.72
2018-09-11T10:15:35.579Z,101952.44
2018-09-11T10:18:05.658Z,101939.19
2018-09-11T10:20:36.001Z,101948.36
2018-09-11T10:23:06.196Z,101943.83
2018-09-11T10:25:36.027Z,101935.46
2018-09-11T10:28:05.937Z,101951.44
2018-09-11T10:30:36.334Z,101939.31
2018-09-11T10:33:06.164Z,101947.12
2018-09-11T10:35:36.186Z,101939.77
2018-09-11T10:38:06.189Z,101933.86
2018-09-11T10:40:36.036Z,101936.94
2018-09-11T10:43:06.131Z,101931.05
2018-09-11T10:45:36.237Z,101935.45
2018-09-11T10:48:06.397Z,101931.27
2018-09-11T10:50:36.433Z,101936.37
2018-09-11T10:53:06.655Z,101935.34
2018-09-11T10:55:36.747Z,101929.45
2018-09-11T10:58:07.263Z,101928.41
2018-09-11T11:00:37.111Z,101933.41
2018-09-11T11:03:07.436Z,101930.33
2018-09-11T11:05:37.336Z,101933.41
2018-09-11T11:08:07.785Z,101924.80
2018-09-11T11:10:38.162Z,101925.92
2018-09-11T11:13:08.113Z,101930.02
2018-09-11T11:15:38.260Z,101924.34
2018-09-11T11:18:08.626Z,101912.11
2018-09-11T11:20:38.683Z,101918.67
2018-09-11T11:23:08.592Z,101914.80
2018-09-11T11:25:38.820Z,101909.36
2018-09-11T11:28:08.833Z,101917.50
2018-09-11T11:30:38.848Z,101912.51
2018-09-11T11:33:08.840Z,101906.12
2018-09-11T11:35:38.779Z,101914.98
2018-09-11T11:38:08.638Z,101914.05
2018-09-11T11:40:38.639Z,101914.25
2018-09-11T11:43:08.912Z,101899.98
2018-09-11T11:45:38.763Z,101900.50
2018-09-11T11:48:08.709Z,101893.34
2018-09-11T11:50:38.728Z,101896.16
2018-09-11T11:53:08.849Z,101896.94
2018-09-11T11:55:38.869Z,101904.09
2018-09-11T11:58:08.856Z,101890.14
2018-09-11T12:00:39.140Z,101880.39
2018-09-11T12:03:09.829Z,101890.23
2018-09-11T12:05:39.830Z,101893.36
2018-09-11T12:08:09.985Z,101889.50
2018-09-11T12:10:39.999Z,101894.20
2018-09-11T12:13:09.812Z,101892.09
2018-09-11T12:15:39.976Z,101888.45
2018-09-11T12:18:09.999Z,101880.06
2018-09-11T12:20:39.998Z,101880.55
2018-09-11T12:23:10.082Z,101878.77
2018-09-11T12:25:40.266Z,101872.95
2018-09-11T12:28:26.188Z,101880.80
2018-09-11T12:30:56.035Z,101870.14
2018-09-11T12:33:26.100Z,101865.81
2018-09-11T12:35:56.453Z,101851.80
2018-09-11T12:38:26.583Z,101855.27
2018-09-11T12:40:56.689Z,101859.47
2018-09-11T12:43:32.337Z,101852.27
2018-09-11T12:46:05.772Z,101851.34
2018-09-11T12:48:36.774Z,101857.09
2018-09-11T12:51:07.910Z,101854.05
2018-09-11T12:53:38.514Z,101859.33
2018-09-11T12:56:08.921Z,101847.22
2018-09-11T12:58:39.382Z,101843.91
2018-09-11T13:01:09.526Z,101846.69
2018-09-11T13:03:39.782Z,101844.30
2018-09-11T13:06:09.969Z,101843.73
2018-09-11T13:08:40.037Z,101843.52
2018-09-11T13:11:10.237Z,101838.17
2018-09-11T13:13:40.582Z,101844.45
2018-09-11T13:16:11.133Z,101836.25
2018-09-11T13:18:41.516Z,101832.52
2018-09-11T13:21:11.719Z,101829.01
2018-09-11T13:23:42.144Z,101837.27
2018-09-11T13:26:12.314Z,101834.22
2018-09-11T13:28:42.661Z,101841.30
2018-09-11T13:31:12.870Z,101837.00
2018-09-11T13:33:42.743Z,101840.16
2018-09-11T13:36:12.876Z,101824.69
2018-09-11T13:38:43.044Z,101823.66
2018-09-11T13:41:13.282Z,101817.80
2018-09-11T13:43:43.486Z,101815.75
2018-09-11T13:46:13.806Z,101822.64
2018-09-11T13:48:43.924Z,101815.23
2018-09-11T13:51:14.417Z,101815.39
2018-09-11T13:53:44.973Z,101817.38
2018-09-11T13:56:15.078Z,101810.78
2018-09-11T13:58:45.278Z,101806.42
2018-09-11T14:01:15.614Z,101803.52
2018-09-11T14:03:45.757Z,101790.41
2018-09-11T14:06:16.123Z,101786.39
2018-09-11T14:08:46.404Z,101780.48
2018-09-11T14:11:16.900Z,101785.34
2018-09-11T14:13:47.400Z,101784.32
2018-09-11T14:16:17.678Z,101786.52
2018-09-11T14:18:48.035Z,101781.29
2018-09-11T14:21:18.697Z,101779.16
2018-09-11T14:23:48.593Z,101769.72
2018-09-11T14:26:18.926Z,101775.75
2018-09-11T14:28:49.807Z,101772.28
2018-09-11T14:31:20.838Z,101761.73
2018-09-11T14:33:50.928Z,101764.69
2018-09-11T14:36:21.175Z,101762.89
2018-09-11T14:38:51.438Z,101771.52
2018-09-11T14:41:22.179Z,101775.56
2018-09-11T14:43:52.425Z,101776.75
2018-09-11T14:46:23.272Z,101768.86
2018-09-11T14:48:53.456Z,101768.16
2018-09-11T14:51:23.605Z,101768.69
2018-09-11T14:53:54.064Z,101769.17
2018-09-11T14:56:24.361Z,101766.50
2018-09-11T14:58:57.929Z,101767.20
2018-09-11T15:01:28.270Z,101761.29
2018-09-11T15:03:58.654Z,101763.28
2018-09-11T15:06:29.070Z,101767.12
2018-09-11T15:08:59.180Z,101762.72
2018-09-11T15:11:29.338Z,101759.99
2018-09-11T15:13:59.573Z,101759.97
2018-09-11T15:16:29.477Z,101758.59
2018-09-11T15:18:59.746Z,101752.38
2018-09-11T15:21:30.077Z,101752.18
2018-09-11T15:24:00.882Z,101749.30
2018-09-11T15:26:30.926Z,101752.14
2018-09-11T15:29:01.236Z,101744.98
2018-09-11T15:31:31.314Z,101740.89
2018-09-11T15:34:02.209Z,101737.16
2018-09-11T15:36:32.689Z,101739.66
2018-09-11T15:39:02.656Z,101736.66
2018-09-11T15:41:32.647Z,101732.07
2018-09-11T15:44:03.628Z,101732.09
2018-09-11T15:46:33.702Z,101733.94
2018-09-11T15:49:04.249Z,101736.97
2018-09-11T15:51:34.523Z,101732.23
2018-09-11T15:54:04.711Z,101722.31
2018-09-11T15:56:34.885Z,101721.95
2018-09-11T15:59:05.171Z,101722.18
2018-09-11T16:01:35.376Z,101719.81
2018-09-11T16:04:05.810Z,101719.31
2018-09-11T16:06:35.875Z,101713.85
2018-09-11T16:09:09.297Z,101710.86
2018-09-11T16:11:39.561Z,101714.66
2018-09-11T16:14:10.345Z,101712.92
2018-09-11T16:16:40.891Z,101707.63
2018-09-11T16:19:11.496Z,101704.93
2018-09-11T16:21:42.176Z,101704.59
2018-09-11T16:24:12.363Z,101703.59
2018-09-11T16:26:43.097Z,101708.05
2018-09-11T16:29:13.422Z,101708.25
2018-09-11T16:31:43.529Z,101703.79
2018-09-11T16:34:13.672Z,101692.73
2018-09-11T16:36:44.015Z,101697.49
2018-09-11T16:39:14.354Z,101690.44
2018-09-11T16:41:44.616Z,101692.83
2018-09-11T16:44:14.767Z,101690.82
2018-09-11T16:46:44.875Z,101690.26
2018-09-11T16:49:14.889Z,101686.22
2018-09-11T16:51:45.132Z,101698.28
2018-09-11T16:54:15.106Z,101698.95
2018-09-11T16:56:45.625Z,101705.26
2018-09-11T16:59:15.867Z,101703.53
2018-09-11T17:01:46.015Z,101701.37
2018-09-11T17:04:16.362Z,101703.27
2018-09-11T17:06:46.922Z,101691.24
2018-09-11T17:09:16.868Z,101697.51
2018-09-11T17:11:46.990Z,101699.75
2018-09-11T17:14:17.401Z,101697.95
2018-09-11T17:16:47.536Z,101702.32
2018-09-11T17:19:17.958Z,101703.67
2018-09-11T17:21:48.610Z,101703.44
2018-09-11T17:24:19.329Z,101712.60
2018-09-11T17:26:49.206Z,101714.23
2018-09-11T17:29:19.612Z,101709.91
2018-09-11T17:31:49.826Z,101714.06
2018-09-11T17:34:19.843Z,101711.82
2018-09-11T17:36:50.089Z,101718.87
2018-09-11T17:39:20.419Z,101719.82
2018-09-11T17:41:50.780Z,101718.31
2018-09-11T17:44:20.813Z,101720.38
2018-09-11T17:46:50.752Z,101726.30
2018-09-11T17:49:20.630Z,101729.47
2018-09-11T17:51:50.813Z,101732.72
2018-09-11T17:54:20.925Z,101732.58
2018-09-11T17:56:50.936Z,101736.03
2018-09-11T17:59:21.147Z,101737.86
2018-09-11T18:01:51.059Z,101743.81
2018-09-11T18:04:21.143Z,101749.94
2018-09-11T18:06:51.054Z,101751.31
2018-09-11T18:09:21.316Z,101750.66
2018-09-11T18:11:51.284Z,101753.60
2018-09-11T18:14:21.612Z,101748.89
2018-09-11T18:16:51.737Z,101750.61
2018-09-11T18:19:21.824Z,101756.16
2018-09-11T18:21:52.251Z,101758.66
2018-09-11T18:24:22.470Z,101763.65
2018-09-11T18:26:52.838Z,101772.30
2018-09-11T18:29:23.070Z,101766.64
2018-09-11T18:31:53.520Z,101772.77
2018-09-11T18:34:23.986Z,101769.60
2018-09-11T18:36:54.017Z,101770.42
2018-09-11T18:39:24.472Z,101770.31
2018-09-11T18:41:54.819Z,101777.00
2018-09-11T18:44:25.307Z,101781.86
2018-09-11T18:46:55.371Z,101782.75
2018-09-11T18:49:26.070Z,101778.68
2018-09-11T18:51:56.231Z,101790.66
2018-09-11T18:54:26.793Z,101795.21
2018-09-11T18:56:57.175Z,101789.66
2018-09-11T18:59:27.516Z,101793.74
2018-09-11T19:01:57.724Z,101793.63
2018-09-11T19:04:28.360Z,101791.69
2018-09-11T19:06:58.417Z,101787.04
2018-09-11T19:09:28.625Z,101785.35
2018-09-11T19:11:59.149Z,101792.70
2018-09-11T19:14:29.725Z,101792.92
2018-09-11T19:17:00.082Z,101792.59
2018-09-11T19:19:30.456Z,101786.94
2018-09-11T19:22:00.635Z,101799.81
2018-09-11T19:24:30.678Z,101790.41
2018-09-11T19:27:01.198Z,101789.73
2018-09-11T19:29:31.552Z,101792.57
2018-09-11T19:32:01.714Z,101794.45
2018-09-11T19:34:32.207Z,101795.94
2018-09-11T19:37:02.731Z,101796.73
2018-09-11T19:39:33.024Z,101794.80
2018-09-11T19:42:03.052Z,101791.74
2018-09-11T19:44:32.975Z,101786.16
2018-09-11T19:47:03.105Z,101785.81
2018-09-11T19:49:33.684Z,101790.10
2018-09-11T19:52:03.645Z,101791.67
2018-09-11T19:54:34.757Z,101793.80
2018-09-11T19:57:05.158Z,101794.80
2018-09-11T19:59:35.347Z,101793.07
2018-09-11T20:02:05.899Z,101799.51
2018-09-11T20:04:36.255Z,101790.22
2018-09-11T20:07:06.540Z,101788.52
2018-09-11T20:09:41.339Z,101789.96
2018-09-11T20:12:13.086Z,101795.59
2018-09-11T20:14:43.399Z,101791.72
2018-09-11T20:17:13.638Z,101790.37
2018-09-11T20:19:44.397Z,101795.11
2018-09-11T20:22:14.765Z,101798.23
2018-09-11T20:24:45.310Z,101789.68
2018-09-11T20:27:15.524Z,101796.46
2018-09-11T20:29:45.851Z,101799.44
2018-09-11T20:32:15.837Z,101800.45
2018-09-11T20:34:46.199Z,101802.02
2018-09-11T20:37:16.530Z,101801.64
2018-09-11T20:39:47.085Z,101801.08
2018-09-11T20:42:17.099Z,101797.95
2018-09-11T20:44:47.894Z,101793.16
2018-09-11T20:47:18.170Z,101792.59
2018-09-11T20:49:48.181Z,101789.30
2018-09-11T20:52:21.014Z,101787.19
2018-09-11T20:54:51.896Z,101796.02
2018-09-11T20:57:23.738Z,101795.86
2018-09-11T20:59:54.653Z,101797.88
2018-09-11T21:02:25.549Z,101795.94
2018-09-11T21:04:56.345Z,101793.68
2018-09-11T21:07:27.428Z,101790.03
2018-09-11T21:10:00.346Z,101802.66
2018-09-11T21:12:31.675Z,101798.45
2018-09-11T21:15:01.454Z,101799.89
2018-09-11T21:17:31.365Z,101799.41
2018-09-11T21:20:01.250Z,101801.91
2018-09-11T21:22:31.303Z,101808.55
2018-09-11T21:25:01.298Z,101806.83
2018-09-11T21:27:31.535Z,101810.76
2018-09-11T21:30:02.019Z,101809.27
2018-09-11T21:32:32.152Z,101807.44
2018-09-11T21:35:02.295Z,101806.55
2018-09-11T21:37:32.412Z,101806.63
2018-09-11T21:40:02.589Z,101810.62
2018-09-11T21:42:32.529Z,101810.03
2018-09-11T21:45:03.629Z,101809.95
2018-09-11T21:47:33.893Z,101811.34
2018-09-11T21:50:04.107Z,101805.89
2018-09-11T21:52:34.506Z,101808.05
2018-09-11T21:55:04.864Z,101817.06
2018-09-11T21:57:35.422Z,101821.53
2018-09-11T22:00:07.912Z,101824.58
2018-09-11T22:02:38.468Z,101829.30
2018-09-11T22:05:10.637Z,101825.09
2018-09-11T22:07:41.328Z,101827.25
2018-09-11T22:10:12.828Z,101828.83
2018-09-11T22:12:43.352Z,101827.59
2018-09-11T22:15:14.778Z,101834.66
2018-09-11T22:17:45.337Z,101830.37
2018-09-11T22:20:16.115Z,101830.34
2018-09-11T22:22:47.018Z,101830.09
2018-09-11T22:25:17.230Z,101832.90
2018-09-11T22:27:47.971Z,101827.30
2018-09-11T22:30:19.206Z,101825.33
2018-09-11T22:32:49.729Z,101827.44
2018-09-11T22:35:20.238Z,101830.41
2018-09-11T22:37:50.574Z,101830.92
2018-09-11T22:40:21.026Z,101828.62
2018-09-11T22:42:51.142Z,101826.64
2018-09-11T22:45:21.372Z,101827.74
2018-09-11T22:47:51.732Z,101828.62
2018-09-11T22:50:22.219Z,101826.24
2018-09-11T22:52:52.756Z,101824.19
2018-09-11T22:55:23.201Z,101818.62
2018-09-11T22:57:53.505Z,101819.58
2018-09-11T23:00:23.606Z,101822.69
2018-09-11T23:02:53.926Z,101817.38
2018-09-11T23:05:24.461Z,101825.25
2018-09-11T23:07:54.937Z,101820.34
2018-09-11T23:10:25.362Z,101817.38
2018-09-11T23:12:55.525Z,101813.06
2018-09-11T23:15:25.791Z,101814.60
2018-09-11T23:17:56.119Z,101809.84
2018-09-11T23:20:26.429Z,101814.23
2018-09-11T23:22:56.708Z,101809.14
2018-09-11T23:25:27.100Z,101801.09
2018-09-11T23:27:57.342Z,101806.61
2018-09-11T23:30:27.509Z,101799.19
2018-09-11T23:32:57.609Z,101796.48
2018-09-11T23:35:27.973Z,101797.03
2018-09-11T23:37:58.152Z,101800.06
2018-09-11T23:40:28.590Z,101795.68
2018-09-11T23:42:58.963Z,101798.31
2018-09-11T23:45:29.246Z,101795.47
2018-09-11T23:47:59.218Z,101797.00
2018-09-11T23:50:29.572Z,101797.84
2018-09-11T23:53:00.295Z,101792.35
2018-09-11T23:55:30.333Z,101791.08
2018-09-11T23:58:00.210Z,101790.67
